CSUN Campus Station - National Weather Service Data Page - PST Time




                Date      RH     Dew  Seasonal     Current   Max Air   Min Air    Wind    Wind    Wind    Gust     Bar    Rain
                Time       %   Point      Rain    Air Temp     Since     Since   Speed    Gust     Dir     Dir   Press   Total
                               Deg F    Inches       Deg F  Midnight  Midnight     MPH     MPH                      mb  Inches
------------------------------------------------------------------------------------------------------------------------------
    08/22/2016 00:00      55    53.9    419.83        71.3      93.5      63.3       2       4      82      95    1010    0.00
    08/22/2016 00:10      56    54.1    419.83        70.9      71.3      70.6       2       4      82      83    1011    0.00
    08/22/2016 00:20      57    54.0    419.83        70.4      71.3      70.0       2       5      85      73    1011    0.00
    08/22/2016 00:30      58    54.0    419.83        69.8      71.3      69.5       3       5      70      78    1010    0.00
    08/22/2016 00:40      60    54.1    419.83        69.4      71.3      69.0       3       6      73     115    1010    0.00
    08/22/2016 00:50      62    54.6    419.83        68.7      71.3      68.3       3       5      86      61    1010    0.00
    08/22/2016 01:00      63    54.9    419.83        68.2      71.3      67.8       2       5      89      98    1010    0.00
    08/22/2016 01:10      64    55.1    419.83        67.8      71.3      67.4       2       4      71      97    1010    0.00
    08/22/2016 01:20      65    55.2    419.83        67.5      71.3      67.2       3       5      58      47    1011    0.00
    08/22/2016 01:30      66    55.2    419.83        67.3      71.3      67.0       2       4      67      73    1011    0.00
    08/22/2016 01:40      66    55.3    419.83        67.1      71.3      66.8       2       6      60      58    1011    0.00
    08/22/2016 01:50      66    55.2    419.83        66.9      71.3      66.6       2       4      53      37    1011    0.00
    08/22/2016 02:00      67    55.3    419.83        66.7      71.3      66.5       2       4      36      40    1011    0.00
    08/22/2016 02:10      68    55.4    419.83        66.5      71.3      66.4       2       4      35      13    1011    0.00
    08/22/2016 02:20      67    55.3    419.83        66.4      71.3      66.2       2       4      35      53    1011    0.00
    08/22/2016 02:30      67    55.2    419.83        66.2      71.3      66.1       2       4      32      56    1011    0.00
    08/22/2016 02:40      67    55.0    419.83        66.1      71.3      65.9       2       4      42      44    1011    0.00
    08/22/2016 02:50      67    55.0    419.83        66.1      71.3      65.9       3       5      49      51    1011    0.00
    08/22/2016 03:00      67    54.8    419.83        66.0      71.3      65.9       2       4      53      30    1011    0.00
    08/22/2016 03:10      67    54.8    419.83        66.0      71.3      65.7       1       3      68      35    1011    0.00
    08/22/2016 03:20      68    54.8    419.83        65.8      71.3      65.6       2       4      79      68    1011    0.00
    08/22/2016 03:30      69    54.8    419.83        65.5      71.3      65.2       0       2      77      64    1011    0.00
    08/22/2016 03:40      69    54.9    419.83        65.3      71.3      64.9       0       2      68      38    1011    0.00
    08/22/2016 03:50      71    54.6    419.83        64.7      71.3      64.4       0       0      82      95    1011    0.00
    08/22/2016 04:00      71    54.9    419.83        64.3      71.3      64.1       0       2      72      69    1011    0.00
    08/22/2016 04:10      73    55.1    419.83        64.1      71.3      63.9       0       2      82      90    1011    0.00
    08/22/2016 04:20      72    55.4    419.83        64.4      71.3      63.9       1       2      77      83    1011    0.00
    08/22/2016 04:30      72    55.4    419.83        64.7      71.3      63.9       0       1      92      93    1011    0.00
    08/22/2016 04:40      73    55.1    419.83        64.3      71.3      63.9       0       0       0      75    1011    0.00
    08/22/2016 04:50      74    55.2    419.83        63.8      71.3      63.6       0       0       0     161    1011    0.00
    08/22/2016 05:00      74    55.3    419.83        63.6      71.3      63.3       0       0       0     312    1011    0.00
    08/22/2016 05:10      75    55.0    419.83        63.3      71.3      63.0       0       0       0     300    1011    0.00
    08/22/2016 05:20      76    55.2    419.83        63.1      71.3      62.9       0       0       0     299    1011    0.00
    08/22/2016 05:30      75    55.3    419.83        63.2      71.3      62.9       0       0      33      38    1011    0.00
    08/22/2016 05:40      76    55.0    419.83        62.9      71.3      62.6       0       0       0      29    1011    0.00
    08/22/2016 05:50      77    55.3    419.83        62.8      71.3      62.6       0       0       0     263    1012    0.00
    08/22/2016 06:00      76    55.6    419.83        63.1      71.3      62.6       0       0     163     166    1012    0.00
    08/22/2016 06:10      75    56.0    419.83        63.7      71.3      62.6       0       1     165     166    1012    0.00
    08/22/2016 06:20      74    56.3    419.83        64.6      71.3      62.6       0       1     170     167    1012    0.00
    08/22/2016 06:30      69    56.6    419.83        66.0      71.3      62.6       2       4     180     201    1012    0.00
    08/22/2016 06:40      65    56.2    419.83        67.2      71.3      62.6       1       3     207     182    1012    0.00
    08/22/2016 06:50      62    55.5    419.83        68.1      71.3      62.6       0       2     187     182    1012    0.00
    08/22/2016 07:00      60    55.5    419.83        69.9      71.3      62.6       0       3     179     166    1012    0.00
    08/22/2016 07:10      58    55.4    419.83        70.2      71.3      62.6       2       3     165     151    1012    0.00
    08/22/2016 07:20      55    54.6    419.83        70.5      71.4      62.6       1       2     161     181    1012    0.00
    08/22/2016 07:30      53    54.0    419.83        72.1      72.7      62.6       2       4     159     155    1012    0.00
    08/22/2016 07:40      50    53.1    419.83        72.3      72.8      62.6       1       3     187     170    1012    0.00
    08/22/2016 07:50      44    51.7    419.83        73.1      73.9      62.6       2       5     168     164    1012    0.00
    08/22/2016 08:00      44    51.1    419.83        74.6      75.3      62.6       2       4     133     157    1012    0.00
    08/22/2016 08:10      43    51.7    419.83        75.5      75.8      62.6       2       4     154     167    1012    0.00
    08/22/2016 08:20      38    50.5    419.83        76.3      76.7      62.6       1       4     130     146    1012    0.00
    08/22/2016 08:30      34    47.6    419.83        76.7      77.2      62.6       2       5     103      87    1012    0.00
    08/22/2016 08:40      34    46.2    419.83        76.6      77.3      62.6       2       4      65      79    1012    0.00
    08/22/2016 08:50      33    46.3    419.83        77.4      77.9      62.6       3       5      84      83    1012    0.00
    08/22/2016 09:00      30    46.4    419.84        78.1      78.9      62.6       2       4     125      84    1013    0.00
    08/22/2016 09:10      32    45.2    419.85        79.0      79.2      62.6       3       6     105     153    1012    0.00
    08/22/2016 09:20      31    45.6    419.85        79.4      80.4      62.6       3       6     164     153    1013    0.00
    08/22/2016 09:30      28    45.0    419.85        80.8      81.2      62.6       2       6     150     135    1013    0.00
    08/22/2016 09:40      29    45.2    419.85        80.8      81.4      62.6       2       4     209     177    1013    0.00
    08/22/2016 09:50      28    45.0    419.86        81.5      82.1      62.6       3       6      87      84    1013    0.00
    08/22/2016 10:00      26    44.7    419.86        81.8      82.7      62.6       2       3     127     140    1013    0.00
    08/22/2016 10:10      26    44.8    419.86        83.2      83.7      62.6       3       6      85      85    1012    0.00
    08/22/2016 10:20      26    45.0    419.86        83.5      84.3      62.6       3       6     163     180    1012    0.00
    08/22/2016 10:30      25    45.0    419.89        83.8      84.4      62.6       3       7      92      98    1012    0.00
    08/22/2016 10:40      22    44.5    419.91        84.6      86.2      62.6       4       8     144     123    1012    0.00
    08/22/2016 10:50      25    43.9    419.91        85.3      86.2      62.6       4       7     144     132    1012    0.00
    08/22/2016 11:00      25    45.4    419.94        85.4      86.2      62.6       3       7     100      91    1012    0.00
    08/22/2016 11:10      25    46.3    419.95        86.4      87.0      62.6       3      10     117      90    1012    0.00
    08/22/2016 11:20      26    47.5    419.97        86.4      87.0      62.6       4       9     127     153    1012    0.00
    08/22/2016 11:30      26    46.3    419.99        86.3      87.0      62.6       3       7     120     152    1012    0.00
    08/22/2016 11:40      23    44.9    419.99        86.2      87.0      62.6       4       9      91      83    1012    0.00
    08/22/2016 11:50      22    44.0    420.00        87.0      87.6      62.6       4       8     115     133    1012    0.00
    08/22/2016 12:00      20    43.1    420.00        87.9      88.8      62.6       4       7      97      64    1012    0.00
    08/22/2016 12:10      18    41.0    420.00        88.8      89.7      62.6       5       9     117     162    1012    0.00
    08/22/2016 12:20      20    42.6    420.00        89.4      90.0      62.6       5       8     161     147    1011    0.00
    08/22/2016 12:30      21    42.4    420.01        90.4      90.9      62.6       3       8     122     159    1011    0.00
    08/22/2016 12:40      18    45.1    420.01        90.2      90.9      62.6       4      10     127     161    1011    0.00
    08/22/2016 12:50      17    41.3    420.01        90.4      91.2      62.6       3       7     137     132    1011    0.00
    08/22/2016 13:00      17    39.9    420.01        90.6      91.2      62.6       3       8     127     165    1011    0.00
    08/22/2016 13:10      16    39.5    420.01        90.9      91.4      62.6       3       7     134     159    1011    0.00
    08/22/2016 13:20      16    39.7    420.01        91.1      92.1      62.6       3       9     130     126    1011    0.00
    08/22/2016 13:30      17    40.2    420.02        91.4      92.1      62.6       5      10      98      87    1011    0.00
    08/22/2016 13:40      16    39.6    420.02        91.8      92.2      62.6       6      12     131     125    1011    0.00
    08/22/2016 13:50      15    38.9    420.03        91.7      92.2      62.6       4      10     110      86    1011    0.00
    08/22/2016 14:00      15    37.7    420.04        91.7      92.2      62.6       6      10     143     143    1011    0.00
    08/22/2016 14:10      15    37.0    420.15        91.3      92.3      62.6       4      10     121     145    1011    0.00
    08/22/2016 14:20      15    36.4    420.18        91.5      92.3      62.6       5      11     121      85    1011    0.00
    08/22/2016 14:30      16    36.8    420.19        90.3      92.3      62.6       5      11     128     148    1011    0.00
    08/22/2016 14:40      16    37.5    420.19        89.7      92.3      62.6       4       9     107      90    1011    0.00
    08/22/2016 14:50      17    38.0    420.19        89.2      92.3      62.6       3       8     122      78    1011    0.00
    08/22/2016 15:00      17    39.1    420.22        89.7      92.3      62.6       4      10     125     137    1011    0.00
    08/22/2016 15:10      17    39.5    420.22        90.2      92.3      62.6       5      12     120     138    1011    0.00
    08/22/2016 15:20      16    38.8    420.22        90.3      92.3      62.6       5      10     125      90    1011    0.00
    08/22/2016 15:30      17    38.3    420.61        89.2      92.3      62.6       5      11     112     138    1011    0.00
    08/22/2016 15:40      17    38.1    420.70        88.7      92.3      62.6       5      12     130      91    1011    0.00
    08/22/2016 15:50      17    37.7    420.75        88.6      92.3      62.6       6      13      94      83    1011    0.00
    08/22/2016 16:00      17    38.0    420.76        88.4      92.3      62.6       5      11      89      84    1011    0.00
    08/22/2016 16:10      17    38.0    420.76        88.0      92.3      62.6       5       9      88      87    1010    0.00
    08/22/2016 16:20      16    37.6    420.76        89.0      92.3      62.6       3       9     121      72    1011    0.00
    08/22/2016 16:30      17    38.2    420.76        88.5      92.3      62.6       4       9      89      70    1011    0.00
    08/22/2016 16:40      17    38.2    420.79        88.2      92.3      62.6       4      10      92      99    1011    0.00
    08/22/2016 16:50      17    37.1    420.83        87.2      92.3      62.6       4       9      87      67    1011    0.00
    08/22/2016 17:00      16    36.6    420.83        87.5      92.3      62.6       3       7     115     108    1011    0.00
    08/22/2016 17:10      17    36.5    420.83        87.0      92.3      62.6       2       7     132     127    1011    0.00
    08/22/2016 17:20      17    36.3    420.84        86.6      92.3      62.6       2       7     108      85    1011    0.00
    08/22/2016 17:30      17    35.6    420.85        85.8      92.3      62.6       3       7      97      90    1011    0.00
    08/22/2016 17:40      17    35.9    420.90        85.3      92.3      62.6       2       5     132     154    1011    0.00
    08/22/2016 17:50      17    34.0    420.90        84.8      92.3      62.6       3       6      98     116    1011    0.00
    08/22/2016 18:00      18    34.8    420.95        84.1      92.3      62.6       2       5     101      91    1011    0.00
    08/22/2016 18:10      17    34.6    420.98        83.6      92.3      62.6       1       3      98     164    1011    0.00
    08/22/2016 18:20      27    36.9    420.99        83.3      92.3      62.6       1       4     304     293    1011    0.00
    08/22/2016 18:30      31    47.4    420.99        82.3      92.3      62.6       0       2     289     273    1011    0.00
    08/22/2016 18:40      16    35.7    420.99        81.5      92.3      62.6       1       4     105      95    1011    0.00
    08/22/2016 18:50      18    32.3    420.99        81.3      92.3      62.6       0       3      83      71    1011    0.00
    08/22/2016 19:00      19    34.6    420.99        80.6      92.3      62.6       0       1     235     235    1011    0.00
    08/22/2016 19:10      20    34.4    420.99        79.9      92.3      62.6       0       2     267     265    1011    0.00
    08/22/2016 19:20      25    36.8    420.99        79.2      92.3      62.6       0       2     131      80    1011    0.00
    08/22/2016 19:30      27    40.0    420.99        78.2      92.3      62.6       1       3     151     158    1011    0.00
    08/22/2016 19:40      30    42.0    420.99        77.5      92.3      62.6       0       3      97      78    1011    0.00
    08/22/2016 19:50      32    44.3    420.99        77.3      92.3      62.6       2       3      81      92    1012    0.00
    08/22/2016 20:00      35    46.0    420.99        76.8      92.3      62.6       1       4     120      91    1012    0.00
    08/22/2016 20:10      37    47.2    420.99        75.6      92.3      62.6       0       3     109     132    1012    0.00
    08/22/2016 20:20      39    48.3    420.99        75.3      92.3      62.6       0       4     108     149    1012    0.00
    08/22/2016 20:30      42    49.2    420.99        75.0      92.3      62.6       0       2     108      97    1012    0.00
    08/22/2016 20:40      44    50.2    420.99        74.3      92.3      62.6       0       3     133     130    1012    0.00
    08/22/2016 20:50      46    51.0    420.99        73.8      92.3      62.6       1       3     126      83    1012    0.00
    08/22/2016 21:00      47    51.8    420.99        73.5      92.3      62.6       2       5      91     112    1012    0.00
    08/22/2016 21:10      49    52.8    420.99        73.4      92.3      62.6       2       3      75      94    1012    0.00
    08/22/2016 21:20      51    53.3    420.99        73.0      92.3      62.6       2       4      75      84    1012    0.00
    08/22/2016 21:30      52    53.6    420.99        72.6      92.3      62.6       2       3      75      78    1012    0.00
    08/22/2016 21:40      52    53.7    420.99        72.3      92.3      62.6       1       4      67      49    1012    0.00
    08/22/2016 21:50      52    53.6    420.99        72.0      92.3      62.6       2       3      79      79    1013    0.00
    08/22/2016 22:00      53    53.7    420.99        71.8      92.3      62.6       2       4      75      73    1013    0.00
    08/22/2016 22:10      54    53.8    420.99        71.5      92.3      62.6       0       3      82      59    1013    0.00
    08/22/2016 22:20      56    54.0    420.99        71.0      92.3      62.6       0       2      57      56    1013    0.00
    08/22/2016 22:30      56    54.2    420.99        70.6      92.3      62.6       1       3      80      90    1013    0.00
    08/22/2016 22:40      56    54.3    420.99        70.8      92.3      62.6       1       2      86      98    1013    0.00
    08/22/2016 22:50      57    54.4    420.99        70.5      92.3      62.6       0       2      70      38    1013    0.00
    08/22/2016 23:00      58    54.5    420.99        70.2      92.3      62.6       0       2      59      55    1013    0.00
    08/22/2016 23:10      58    54.7    420.99        70.2      92.3      62.6       1       3      86      95    1013    0.00
    08/22/2016 23:20      60    54.7    420.99        69.7      92.3      62.6       0       2     140      74    1013    0.00
    08/22/2016 23:30      60    55.0    420.99        69.3      92.3      62.6       2       3      87      83    1013    0.00
    08/22/2016 23:40      61    55.2    420.99        69.4      92.3      62.6       1       3      71      81    1013    0.00
    08/22/2016 23:50      61    55.3    420.99        69.3      92.3      62.6       1       3      73      89    1013    0.00
    08/23/2016 00:00      61    55.2    420.99        69.2      92.3      62.6       2       4      59      46    1013    0.00
    08/23/2016 00:10      61    54.8    420.99        69.0      69.3      68.7       2       3      78      95    1013    0.00
    08/23/2016 00:20      60    54.6    420.99        68.8      69.3      68.6       1       3      69      82    1013    0.00
    08/23/2016 00:30      59    54.0    420.99        68.7      69.3      68.5       2       4      47      54    1013    0.00
    08/23/2016 00:40      60    53.8    420.99        68.6      69.3      68.4       1       3      76      66    1013    0.00
    08/23/2016 00:50      60    54.0    420.99        68.4      69.3      68.2       1       3      76      54    1013    0.00
    08/23/2016 01:00      61    53.9    421.00        68.3      69.3      68.1       1       3      76      72    1013    0.00
    08/23/2016 01:10      63    54.1    421.00        67.9      69.3      67.4       0       2     119      77    1013    0.00
    08/23/2016 01:20      64    54.3    421.00        67.1      69.3      66.7       0       0       0     260    1013    0.00
    08/23/2016 01:30      66    54.5    421.00        66.5      69.3      66.2       0       0     195     103    1013    0.00
    08/23/2016 01:40      66    54.5    421.00        66.2      69.3      65.9       0       2      85      65    1013    0.00
    08/23/2016 01:50      66    54.5    421.00        66.3      69.3      65.9       0       2     103      98    1013    0.00
    08/23/2016 02:00      66    54.3    421.00        66.0      69.3      65.8       0       0     176     176    1013    0.00
    08/23/2016 02:10      66    54.2    421.00        65.6      69.3      65.4       0       0     101     102    1013    0.00
    08/23/2016 02:20      67    54.1    421.00        65.3      69.3      65.1       0       0       0     118    1013    0.00
    08/23/2016 02:30      67    54.1    421.00        65.2      69.3      65.0       0       0       0     237    1013    0.00
    08/23/2016 02:40      68    54.3    421.00        65.1      69.3      64.8       0       0      67      73    1013    0.00
    08/23/2016 02:50      67    54.4    421.00        65.5      69.3      64.8       0       0      60      69    1013    0.00
    08/23/2016 03:00      67    54.4    421.00        65.5      69.3      64.8       0       2      48      89    1013    0.00
    08/23/2016 03:10      66    54.2    421.00        65.5      69.3      64.8       0       0      31      29    1013    0.00
    08/23/2016 03:20      68    54.1    421.00        65.1      69.3      64.8       0       0       0     341    1013    0.00
    08/23/2016 03:30      69    54.2    421.00        64.8      69.3      64.6       0       0       0     301    1013    0.00
    08/23/2016 03:40      68    54.3    421.00        64.8      69.3      64.6       0       0       0     314    1013    0.00
    08/23/2016 03:50      68    53.8    421.00        64.7      69.3      64.3       0       0       0      44    1013    0.00
    08/23/2016 04:00      70    53.8    421.00        64.2      69.3      64.0       0       0       0     330    1013    0.00
    08/23/2016 04:10      71    53.9    421.00        63.9      69.3      63.6       0       0       0      94    1013    0.00
    08/23/2016 04:20      69    54.4    421.00        64.1      69.3      63.6       0       2      69      64    1013    0.00
    08/23/2016 04:30      70    54.2    421.00        64.6      69.3      63.6       0       1      68      63    1013    0.00
    08/23/2016 04:40      71    54.4    421.00        64.1      69.3      63.6       0       0       0      66    1014    0.00
    08/23/2016 04:50      71    53.7    421.00        63.4      69.3      63.1       0       0       0      72    1014    0.00
    08/23/2016 05:00      71    54.0    421.00        63.3      69.3      63.1       0       0       0      87    1014    0.00
    08/23/2016 05:10      71    53.7    421.00        63.3      69.3      63.1       0       0       0     303    1014    0.00
    08/23/2016 05:20      71    53.5    421.00        63.2      69.3      63.0       0       0       0     301    1014    0.00
    08/23/2016 05:30      72    53.6    421.00        63.0      69.3      62.7       0       0       0     267    1014    0.00
    08/23/2016 05:40      71    53.7    421.00        62.9      69.3      62.7       0       0     288     288    1014    0.00
    08/23/2016 05:50      69    53.4    421.00        63.2      69.3      62.7       0       0     322     331    1014    0.00
    08/23/2016 06:00      66    52.5    421.00        63.6      69.3      62.7       0       0     314     315    1015    0.00
    08/23/2016 06:10      64    51.7    421.00        64.0      69.3      62.7       0       0       0     302    1015    0.00
    08/23/2016 06:20      63    51.9    421.00        64.4      69.3      62.7       0       0       0     272    1015    0.00
    08/23/2016 06:30      59    52.6    421.00        65.9      69.3      62.7       0       0       0     271    1015    0.00
    08/23/2016 06:40      56    52.1    421.00        68.0      69.3      62.7       0       0     220     220    1015    0.00
    08/23/2016 06:50      55    53.2    421.00        69.5      70.2      62.7       0       2     100     113    1015    0.00
    08/23/2016 07:00      55    53.6    421.00        70.5      71.0      62.7       0       3      76      44    1015    0.00
    08/23/2016 07:10      52    53.8    421.00        71.3      72.0      62.7       0       2     111      50    1015    0.00
    08/23/2016 07:20      53    53.4    421.00        71.5      72.0      62.7       0       3     192     181    1015    0.00
    08/23/2016 07:30      50    52.7    421.00        71.9      72.6      62.7       0       2     140     106    1015    0.00
    08/23/2016 07:40      49    52.1    421.00        72.9      73.3      62.7       0       4      99     159    1015    0.00
    08/23/2016 07:50      44    51.3    421.00        73.0      73.8      62.7       1       4     110     105    1015    0.00
    08/23/2016 08:00      41    50.4    421.00        74.6      75.6      62.7       1       3      92     157    1015    0.00
    08/23/2016 08:10      36    48.4    421.00        74.5      75.6      62.7       2       4     160      92    1015    0.00
    08/23/2016 08:20      38    48.5    421.00        75.0      75.6      62.7       2       4     134     183    1015    0.00
    08/23/2016 08:30      37    49.1    421.00        76.2      76.7      62.7       3       6     162     151    1016    0.00
    08/23/2016 08:40      40    49.7    421.00        77.0      77.6      62.7       2       5     161     153    1016    0.00
    08/23/2016 08:50      39    50.6    421.00        77.3      78.0      62.7       1       4     200     188    1016    0.00
    08/23/2016 09:00      38    50.0    421.02        76.8      78.0      62.7       3       7     167     151    1016    0.00
    08/23/2016 09:10      35    49.4    421.04        77.5      78.5      62.7       2       4     109     147    1016    0.00
    08/23/2016 09:20      35    49.1    421.07        78.4      79.2      62.7       2       5     172     172    1016    0.00
    08/23/2016 09:30      34    48.1    421.15        79.4      80.1      62.7       3       8     158     159    1016    0.00
    08/23/2016 09:40      34    48.1    421.15        79.6      80.2      62.7       3       5     146     173    1016    0.00
    08/23/2016 09:50      31    48.7    421.15        80.5      81.0      62.7       2       5     141     171    1016    0.00
    08/23/2016 10:00      32    48.5    421.22        81.4      82.1      62.7       2       4     108      77    1016    0.00
    08/23/2016 10:10      30    48.3    421.28        82.4      83.4      62.7       3       7     128      41    1016    0.00
    08/23/2016 10:20      28    46.5    421.37        82.2      83.4      62.7       3       7      92      83    1016    0.00
    08/23/2016 10:30      28    45.5    421.41        82.2      83.4      62.7       3       7      99      91    1016    0.00
    08/23/2016 10:40      28    47.7    421.41        83.7      85.4      62.7       2       6     147     143    1016    0.00
    08/23/2016 10:50      28    47.3    421.41        85.6      86.6      62.7       4       8     162     148    1016    0.00
    08/23/2016 11:00      27    45.7    421.41        84.0      86.6      62.7       3       7     204     150    1016    0.00
    08/23/2016 11:10      28    46.6    421.41        84.4      86.6      62.7       3       7     122      78    1015    0.00
    08/23/2016 11:20      26    46.8    421.41        84.8      86.6      62.7       3       7     154     169    1015    0.00
    08/23/2016 11:30      25    46.3    421.41        85.3      86.6      62.7       3       6     259     167    1015    0.00
    08/23/2016 11:40      26    47.0    421.42        86.0      87.3      62.7       3       7     175     138    1015    0.00
    08/23/2016 11:50      24    46.2    421.42        87.8      88.8      62.7       3       6     112     121    1015    0.00
    08/23/2016 12:00      23    45.9    421.44        87.3      88.8      62.7       3       7     168     131    1015    0.00
    08/23/2016 12:10      23    45.8    421.44        87.6      88.8      62.7       2       5      95      75    1015    0.00
    08/23/2016 12:20      24    45.8    421.45        88.1      88.8      62.7       3       9     100     100    1015    0.00
    08/23/2016 12:30      24    46.6    421.45        88.3      88.8      62.7       4       9     140     145    1015    0.00
    08/23/2016 12:40      23    46.8    421.45        88.9      89.6      62.7       5      10     103      87    1015    0.00
    08/23/2016 12:50      24    46.8    421.45        88.2      89.6      62.7       4       8     117      79    1015    0.00
    08/23/2016 13:00      23    46.7    421.45        88.9      89.6      62.7       4       8     128     190    1015    0.00
    08/23/2016 13:10      23    46.4    421.46        89.3      89.7      62.7       5      11     131     152    1015    0.00
    08/23/2016 13:20      23    45.8    421.49        89.5      90.4      62.7       4       9     126      73    1014    0.00
    08/23/2016 13:30      22    45.5    421.50        89.5      90.4      62.7       4       9     120      85    1014    0.00
    08/23/2016 13:40      21    43.6    421.50        89.0      90.4      62.7       4       9     108     137    1014    0.00
    08/23/2016 13:50      17    41.1    421.50        89.1      90.4      62.7       5      12     118     158    1014    0.00
    08/23/2016 14:00      16    39.5    421.51        89.5      90.4      62.7       4       9     110     103    1014    0.00
    08/23/2016 14:10      16    38.0    421.53        89.6      90.4      62.7       4       8     113      92    1014    0.00
    08/23/2016 14:20      15    36.0    421.61        89.3      90.4      62.7       6      10      92      90    1014    0.00
    08/23/2016 14:30      16    36.0    421.65        89.0      90.4      62.7       5      11      89      82    1014    0.00
    08/23/2016 14:40      16    36.9    421.66        89.2      90.4      62.7       5      11      88      91    1014    0.00
    08/23/2016 14:50      16    38.1    421.66        89.8      90.4      62.7       4      10     115     151    1014    0.00
    08/23/2016 15:00      16    37.9    421.66        89.6      90.4      62.7       5       9     105      86    1014    0.00
    08/23/2016 15:10      16    38.0    421.66        89.4      90.4      62.7       5       9     117     129    1014    0.00
    08/23/2016 15:20      17    37.6    421.66        88.7      90.4      62.7       5      10      84      93    1014    0.00
    08/23/2016 15:30      17    37.8    421.72        88.1      90.4      62.7       5      13      92      93    1014    0.00
    08/23/2016 15:40      18    38.9    421.78        88.6      90.4      62.7       4       9     120      77    1014    0.00
    08/23/2016 15:50      18    38.7    421.80        88.2      90.4      62.7       4       8      94      95    1014    0.00
    08/23/2016 16:00      17    38.2    421.83        88.0      90.4      62.7       4       9     101      84    1014    0.00
    08/23/2016 16:10      17    37.5    421.97        87.8      90.4      62.7       5      10      94      70    1014    0.00
    08/23/2016 16:20      18    37.7    422.17        87.1      90.4      62.7       5      11     100      98    1014    0.00
    08/23/2016 16:30      17    37.4    422.17        86.6      90.4      62.7       4       8      97      81    1014    0.00
    08/23/2016 16:40      17    36.9    422.19        86.5      90.4      62.7       4       9     118      93    1014    0.00
    08/23/2016 16:50      18    37.0    422.21        86.7      90.4      62.7       3       8     105      75    1014    0.00
    08/23/2016 17:00      18    37.3    422.24        86.0      90.4      62.7       4       6      84      84    1014    0.00
    08/23/2016 17:10      20    38.8    422.24        85.0      90.4      62.7       4       7      97      82    1014    0.00
    08/23/2016 17:20      20    40.3    422.24        84.8      90.4      62.7       3       6      89      91    1014    0.00
    08/23/2016 17:30      21    40.0    422.24        84.3      90.4      62.7       3       6      86      93    1014    0.00
    08/23/2016 17:40      22    40.0    422.24        83.5      90.4      62.7       3       6      89     101    1014    0.00
    08/23/2016 17:50      23    40.9    422.24        83.0      90.4      62.7       3       6      98      93    1014    0.00
    08/23/2016 18:00      25    42.1    422.24        82.5      90.4      62.7       2       6      86      80    1014    0.00
    08/23/2016 18:10      25    42.4    422.24        81.9      90.4      62.7       2       4      88      95    1014    0.00
    08/23/2016 18:20      24    41.6    422.24        81.4      90.4      62.7       2       4      66      67    1014    0.00
    08/23/2016 18:30      24    41.1    422.24        81.1      90.4      62.7       2       4      77      79    1014    0.00
    08/23/2016 18:40      25    41.1    422.24        80.8      90.4      62.7       1       4      96      74    1014    0.00
    08/23/2016 18:50      24    40.9    422.24        80.2      90.4      62.7       1       4      82      95    1014    0.00
    08/23/2016 19:00      25    40.7    422.24        79.9      90.4      62.7       1       3      70      97    1014    0.00
    08/23/2016 19:10      25    41.0    422.24        79.5      90.4      62.7       0       3      77      80    1014    0.00
    08/23/2016 19:20      27    41.3    422.24        78.9      90.4      62.7       0       3     142      96    1014    0.00
    08/23/2016 19:30      27    41.3    422.24        78.6      90.4      62.7       2       3      80      93    1015    0.00
    08/23/2016 19:40      27    41.7    422.25        78.4      90.4      62.7       0       1     100      89    1015    0.00
    08/23/2016 19:50      28    42.0    422.26        77.8      90.4      62.7       0       2      86      92    1015    0.00
    08/23/2016 20:00      29    42.6    422.26        77.6      90.4      62.7       0       2     155     160    1015    0.00
    08/23/2016 20:10      30    42.6    422.26        76.8      90.4      62.7       0       2     142     147    1015    0.00
    08/23/2016 20:20      30    42.5    422.26        76.3      90.4      62.7       0       2     106     105    1015    0.00
    08/23/2016 20:30      30    43.0    422.26        76.5      90.4      62.7       0       3      76      76    1015    0.00
    08/23/2016 20:40      32    43.7    422.26        76.6      90.4      62.7       0       3     130      91    1015    0.00
    08/23/2016 20:50      33    44.0    422.26        75.9      90.4      62.7       0       3     103      83    1015    0.00
    08/23/2016 21:00      33    44.7    422.26        75.7      90.4      62.7       1       4      94      93    1015    0.00
    08/23/2016 21:10      35    45.3    422.26        75.8      90.4      62.7       0       3     105      90    1015    0.00
    08/23/2016 21:20      36    45.7    422.26        75.0      90.4      62.7       1       2     143     137    1015    0.00
    08/23/2016 21:30      38    46.0    422.26        74.4      90.4      62.7       0       2      98      85    1015    0.00
    08/23/2016 21:40      39    47.4    422.26        74.4      90.4      62.7       2       3      83      88    1015    0.00
    08/23/2016 21:50      41    48.3    422.26        74.3      90.4      62.7       2       3      76      64    1015    0.00
    08/23/2016 22:00      43    49.5    422.26        74.0      90.4      62.7       2       4      80      76    1015    0.00
    08/23/2016 22:10      44    50.1    422.26        73.5      90.4      62.7       2       4      72      90    1016    0.00
    08/23/2016 22:20      45    50.3    422.26        73.2      90.4      62.7       2       6      74     107    1016    0.00
    08/23/2016 22:30      48    51.1    422.26        72.7      90.4      62.7       2       5      64      94    1016    0.00
    08/23/2016 22:40      50    51.8    422.26        72.3      90.4      62.7       2       5      55      50    1015    0.00
    08/23/2016 22:50      51    52.6    422.26        72.0      90.4      62.7       3       5      72     110    1015    0.00
    08/23/2016 23:00      53    53.1    422.26        71.6      90.4      62.7       2       4      60      47    1015    0.00
    08/23/2016 23:10      54    53.4    422.26        71.4      90.4      62.7       2       4      76      70    1015    0.00
    08/23/2016 23:20      55    53.8    422.26        71.1      90.4      62.7       1       3      75      80    1015    0.00
    08/23/2016 23:30      56    54.0    422.26        70.9      90.4      62.7       2       4      52      57    1015    0.00
    08/23/2016 23:40      56    54.2    422.26        70.7      90.4      62.7       2       4      62      47    1015    0.00
    08/23/2016 23:50      57    54.4    422.26        70.5      90.4      62.7       1       3      93      86    1015    0.00
    08/24/2016 00:00      58    54.5    422.26        69.9      90.4      62.7       0       4      85      75    1015    0.00
    08/24/2016 00:10      59    54.6    422.26        69.8      70.0      69.7       2       3      84      74    1015    0.00
    08/24/2016 00:20      59    54.7    422.26        69.8      70.0      69.5       1       2      80      74    1015    0.00
    08/24/2016 00:30      58    54.5    422.26        69.6      70.0      69.4       0       2      75      59    1015    0.00
    08/24/2016 00:40      59    54.3    422.26        69.5      70.0      69.3       0       2      92      95    1015    0.00
    08/24/2016 00:50      60    54.0    422.26        68.8      70.0      68.4       0       0       0     190    1015    0.00
    08/24/2016 01:00      61    54.0    422.26        68.3      70.0      68.0       0       2      83      91    1015    0.00
    08/24/2016 01:10      59    54.2    422.26        68.3      70.0      68.0       0       1      53      46    1015    0.00
    08/24/2016 01:20      60    54.1    422.26        68.5      70.0      68.0       1       3      62      71    1015    0.00
    08/24/2016 01:30      60    54.5    422.26        68.8      70.0      68.0       0       3      66      47    1015    0.00
    08/24/2016 01:40      61    54.5    422.26        68.6      70.0      68.0       2       4      69      77    1015    0.00
    08/24/2016 01:50      62    54.5    422.26        68.3      70.0      67.9       0       2      75      96    1015    0.00
    08/24/2016 02:00      62    54.5    422.26        68.1      70.0      67.8       0       2      68      73    1015    0.00
    08/24/2016 02:10      63    54.4    422.26        67.7      70.0      67.4       0       2      47      52    1015    0.00
    08/24/2016 02:20      64    54.5    422.26        67.0      70.0      66.7       0       0       0      51    1015    0.00
    08/24/2016 02:30      65    54.5    422.26        66.7      70.0      66.5       0       1      34      26    1015    0.00
    08/24/2016 02:40      62    54.0    422.26        66.7      70.0      66.5       0       2      58      57    1015    0.00
    08/24/2016 02:50      64    53.9    422.26        67.0      70.0      66.5       0       1      79      71    1015    0.00
    08/24/2016 03:00      64    53.9    422.26        66.4      70.0      66.2       0       2      79     103    1015    0.00
    08/24/2016 03:10      63    53.7    422.26        66.5      70.0      66.2       0       1      32      34    1015    0.00
    08/24/2016 03:20      64    53.8    422.26        66.4      70.0      66.1       0       2      76      69    1015    0.00
    08/24/2016 03:30      64    53.6    422.26        66.1      70.0      65.7       0       0       0      85    1015    0.00
    08/24/2016 03:40      66    53.6    422.26        65.7      70.0      65.5       0       0       0     289    1015    0.00
    08/24/2016 03:50      66    53.8    422.26        65.3      70.0      65.0       0       0       0     288    1015    0.00
    08/24/2016 04:00      66    53.4    422.26        65.1      70.0      64.8       0       0       0     312    1015    0.00
    08/24/2016 04:10      66    53.3    422.26        64.9      70.0      64.7       0       0       0     313    1015    0.00
    08/24/2016 04:20      65    53.3    422.26        65.0      70.0      64.7       0       0       0     299    1015    0.00
    08/24/2016 04:30      65    53.1    422.26        65.3      70.0      64.7       0       0     345     344    1015    0.00
    08/24/2016 04:40      66    53.0    422.26        65.0      70.0      64.7       0       1     131     132    1015    0.00
    08/24/2016 04:50      63    52.8    422.26        65.0      70.0      64.6       0       2      77      83    1015    0.00
    08/24/2016 05:00      64    52.3    422.26        65.0      70.0      64.6       0       0       0      79    1015    0.00
    08/24/2016 05:10      65    52.4    422.26        64.7      70.0      64.5       0       0     343       3    1015    0.00
    08/24/2016 05:20      65    52.4    422.26        64.5      70.0      64.3       0       0     270     270    1015    0.00
    08/24/2016 05:30      65    52.2    422.26        64.3      70.0      64.0       0       0       0     272    1015    0.00
    08/24/2016 05:40      66    52.4    422.26        64.0      70.0      63.8       0       0       0     272    1015    0.00
    08/24/2016 05:50      67    52.4    422.26        63.8      70.0      63.5       0       0       0     271    1015    0.00
    08/24/2016 06:00      67    52.8    422.26        63.8      70.0      63.5       0       0       0     115    1016    0.00
    08/24/2016 06:10      66    53.0    422.26        64.2      70.0      63.5       0       0       0     214    1016    0.00
    08/24/2016 06:20      65    53.2    422.26        64.9      70.0      63.5       0       0     195     221    1016    0.00
    08/24/2016 06:30      61    53.3    422.26        66.1      70.0      63.5       0       1     143      52    1016    0.00
    08/24/2016 06:40      58    53.5    422.26        68.3      70.0      63.5       0       2     126     142    1016    0.00
    08/24/2016 06:50      57    53.7    422.26        69.6      70.0      63.5       0       2     200      82    1016    0.00
    08/24/2016 07:00      58    53.7    422.26        69.3      70.0      63.5       1       2     197     285    1016    0.00
    08/24/2016 07:10      56    53.7    422.26        70.0      70.3      63.5       0       2     186     204    1016    0.00
    08/24/2016 07:20      56    53.7    422.26        70.2      70.5      63.5       1       3     188     178    1016    0.00
    08/24/2016 07:30      53    54.0    422.26        71.0      72.1      63.5       0       2     163      79    1016    0.00
    08/24/2016 07:40      50    53.9    422.26        72.5      73.0      63.5       0       3     162     178    1016    0.00
    08/24/2016 07:50      49    52.9    422.26        72.6      73.0      63.5       1       3     165     195    1016    0.00
    08/24/2016 08:00      48    53.6    422.26        74.1      75.1      63.5       2       5     152     161    1016    0.00
    08/24/2016 08:10      51    53.5    422.26        73.5      75.1      63.5       2       4     182     167    1016    0.00
    08/24/2016 08:20      46    54.0    422.26        74.1      75.8      63.5       2       4     165     152    1016    0.00
    08/24/2016 08:30      43    51.7    422.26        76.0      76.3      63.5       0       2     140     135    1016    0.00
    08/24/2016 08:40      43    52.4    422.26        76.6      77.2      63.5       0       2     185     172    1016    0.00
    08/24/2016 08:50      41    51.7    422.27        77.0      77.5      63.5       2       6     115     139    1016    0.00
    08/24/2016 09:00      38    50.9    422.32        77.4      78.1      63.5       2       5     145     149    1016    0.00
    08/24/2016 09:10      40    51.4    422.44        77.7      78.1      63.5       2       5     185     166    1016    0.00
    08/24/2016 09:20      35    50.4    422.45        78.0      79.3      63.5       2       6     177     155    1016    0.00
    08/24/2016 09:30      32    48.9    422.46        80.5      81.0      63.5       2       5     162     167    1016    0.00
    08/24/2016 09:40      32    48.8    422.47        80.6      81.7      63.5       1       5     110     161    1016    0.00
    08/24/2016 09:50      31    48.0    422.47        80.9      81.7      63.5       1       5     179     171    1016    0.00
    08/24/2016 10:00      30    48.1    422.47        82.0      82.4      63.5       2       5     128     145    1016    0.00
    08/24/2016 10:10      29    47.9    422.49        81.8      82.4      63.5       3       6     105     113    1016    0.00
    08/24/2016 10:20      28    46.5    422.50        82.6      82.8      63.5       3       6      78      88    1016    0.00
    08/24/2016 10:30      28    46.6    422.51        83.2      83.8      63.5       2       6     142     115    1015    0.00
    08/24/2016 10:40      28    46.5    422.52        83.6      84.4      63.5       3       6     180     206    1015    0.00
    08/24/2016 10:50      26    46.4    422.54        84.7      85.7      63.5       3       7     179     144    1015    0.00
    08/24/2016 11:00      26    46.5    422.54        85.2      85.7      63.5       2       6     144     148    1015    0.00
    08/24/2016 11:10      27    46.9    422.54        85.6      86.3      63.5       2       6     169     159    1015    0.00
    08/24/2016 11:20      28    48.2    422.54        86.1      86.7      63.5       1       5     181     106    1015    0.00
    08/24/2016 11:30      27    48.8    422.55        86.3      87.0      63.5       3       6     159     151    1014    0.00
    08/24/2016 11:40      26    47.6    422.55        86.8      87.4      63.5       3       8     206     151    1014    0.00
    08/24/2016 11:50      24    47.8    422.56        87.7      88.4      63.5       3       7     176     168    1014    0.00
    08/24/2016 12:00      23    47.7    422.60        88.3      89.1      63.5       3       7     127     171    1014    0.00
    08/24/2016 12:10      22    46.9    422.62        89.5      90.2      63.5       2       5     221     226    1014    0.00
    08/24/2016 12:20      23    46.5    422.63        89.2      90.2      63.5       3       5     286     353    1014    0.00
    08/24/2016 12:30      23    47.3    422.71        89.8      90.5      63.5       3       7     229     206    1014    0.00
    08/24/2016 12:40      22    47.4    422.79        89.9      90.7      63.5       3       7     167     174    1014    0.00
    08/24/2016 12:50      23    47.6    423.03        91.1      91.6      63.5       4       8     114     133    1014    0.00
    08/24/2016 13:00      23    47.3    423.11        90.7      91.6      63.5       4       9     100      84    1013    0.00
    08/24/2016 13:10      21    48.0    423.14        91.6      92.2      63.5       4      11     140     157    1013    0.00
    08/24/2016 13:20      22    47.3    423.14        92.0      92.5      63.5       4       9     131     168    1013    0.00
    08/24/2016 13:30      21    48.1    423.14        92.1      93.7      63.5       5      11     151     155    1013    0.00
    08/24/2016 13:40      23    47.5    423.14        92.7      93.7      63.5       4       8     135     130    1013    0.00
    08/24/2016 13:50      22    48.3    423.15        93.1      93.7      63.5       5       9     148     162    1013    0.00
    08/24/2016 14:00      24    48.4    423.15        92.4      93.7      63.5       4       9     124      93    1013    0.00
    08/24/2016 14:10      23    48.4    423.15        92.4      93.7      63.5       4       9     128     145    1013    0.00
    08/24/2016 14:20      22    48.2    423.15        92.1      93.7      63.5       5      10     137     127    1012    0.00
    08/24/2016 14:30      23    48.0    423.15        91.4      93.7      63.5       5      11     143     142    1012    0.00
    08/24/2016 14:40      22    47.7    423.15        91.7      93.7      63.5       5      11     136     117    1012    0.00
    08/24/2016 14:50      22    47.0    423.15        91.3      93.7      63.5       4      10     112      85    1012    0.00
    08/24/2016 15:00      22    47.1    423.15        90.8      93.7      63.5       3       9     116      95    1012    0.00
    08/24/2016 15:10      23    47.2    423.15        90.9      93.7      63.5       5       9      97      98    1012    0.00
    08/24/2016 15:20      24    47.8    423.15        90.4      93.7      63.5       4       9     108      99    1012    0.00
    08/24/2016 15:30      24    48.3    423.15        90.2      93.7      63.5       5      10     102      96    1012    0.00
    08/24/2016 15:40      24    48.1    423.15        89.3      93.7      63.5       4      12     109      81    1012    0.00
    08/24/2016 15:50      24    48.4    423.15        89.1      93.7      63.5       4      11     115      86    1012    0.00
    08/24/2016 16:00      25    48.2    423.15        88.5      93.7      63.5       4       9     110      83    1012    0.00
    08/24/2016 16:10      25    48.0    423.15        88.1      93.7      63.5       4       9     108      84    1012    0.00
    08/24/2016 16:20      26    48.1    423.15        87.8      93.7      63.5       4       8     106      90    1012    0.00
    08/24/2016 16:30      26    48.2    423.15        87.2      93.7      63.5       3       7     104      88    1012    0.00
    08/24/2016 16:40      26    48.2    423.15        87.2      93.7      63.5       3       6      94     105    1012    0.00
    08/24/2016 16:50      27    48.6    423.15        87.1      93.7      63.5       3       5      91      70    1011    0.00
    08/24/2016 17:00      27    48.8    423.15        86.7      93.7      63.5       3       8     131     157    1011    0.00
    08/24/2016 17:10      28    48.9    423.16        86.2      93.7      63.5       2       5     128     130    1011    0.00
    08/24/2016 17:20      29    48.6    423.16        85.3      93.7      63.5       2       5     118      90    1011    0.00
    08/24/2016 17:30      29    48.5    423.19        84.3      93.7      63.5       3       6     120      94    1011    0.00
    08/24/2016 17:40      30    48.4    423.20        83.2      93.7      63.5       3       6      85      74    1011    0.00
    08/24/2016 17:50      30    48.1    423.20        82.3      93.7      63.5       3       6      78      54    1012    0.00
    08/24/2016 18:00      31    47.7    423.30        81.3      93.7      63.5       4       8      77      44    1012    0.00
    08/24/2016 18:10      31    47.3    423.30        80.5      93.7      63.5       4       7      82      78    1012    0.00
    08/24/2016 18:20      31    46.6    423.33        79.6      93.7      63.5       4       8      80     101    1012    0.00
    08/24/2016 18:30      32    46.3    423.35        78.6      93.7      63.5       5       7      83      87    1012    0.00
    08/24/2016 18:40      33    46.0    423.36        77.9      93.7      63.5       5       8      81      82    1012    0.00
    08/24/2016 18:50      33    45.9    423.38        77.3      93.7      63.5       5       9      77      72    1012    0.00
    08/24/2016 19:00      34    45.6    423.38        76.7      93.7      63.5       3       7      67      65    1012    0.00
    08/24/2016 19:10      35    46.0    423.38        76.3      93.7      63.5       3       6      66      50    1012    0.00
    08/24/2016 19:20      36    46.7    423.38        75.8      93.7      63.5       3       6      80      62    1012    0.00
    08/24/2016 19:30      36    46.9    423.38        75.4      93.7      63.5       2       5      84      90    1012    0.00
    08/24/2016 19:40      38    46.9    423.38        74.9      93.7      63.5       4       6      76      69    1012    0.00
    08/24/2016 19:50      39    47.6    423.38        74.2      93.7      63.5       3       6      70      74    1013    0.00
    08/24/2016 20:00      39    47.3    423.38        73.7      93.7      63.5       3       6      73      46    1013    0.00
    08/24/2016 20:10      41    47.4    423.38        72.9      93.7      63.5       3       7      58      51    1013    0.00
    08/24/2016 20:20      42    47.6    423.38        72.3      93.7      63.5       4       8      51      34    1013    0.00
    08/24/2016 20:30      42    47.5    423.38        71.8      93.7      63.5       4       7      60      73    1013    0.00
    08/24/2016 20:40      44    47.7    423.38        71.4      93.7      63.5       3       6      55      43    1013    0.00
    08/24/2016 20:50      46    48.7    423.38        71.0      93.7      63.5       3       6      64      82    1013    0.00
    08/24/2016 21:00      47    49.2    423.38        70.7      93.7      63.5       3       6      68      79    1013    0.00
    08/24/2016 21:10      47    49.2    423.38        70.4      93.7      63.5       3       6      65      90    1013    0.00
    08/24/2016 21:20      47    48.9    423.38        70.1      93.7      63.5       3       7      72      62    1013    0.00
    08/24/2016 21:30      48    49.2    423.38        70.0      93.7      63.5       3       5      72      73    1013    0.00
    08/24/2016 21:40      49    49.4    423.38        69.8      93.7      63.5       3       5      74      59    1013    0.00
    08/24/2016 21:50      49    49.5    423.38        69.7      93.7      63.5       2       5      80      74    1013    0.00
    08/24/2016 22:00      50    49.8    423.38        69.6      93.7      63.5       2       4      80      83    1013    0.00
    08/24/2016 22:10      51    50.2    423.38        69.5      93.7      63.5       3       5      85      86    1013    0.00
    08/24/2016 22:20      51    50.5    423.38        69.4      93.7      63.5       3       5      74      69    1013    0.00
    08/24/2016 22:30      51    50.5    423.38        69.3      93.7      63.5       3       5      71      46    1013    0.00
    08/24/2016 22:40      52    50.6    423.38        69.2      93.7      63.5       2       4      74      82    1013    0.00
    08/24/2016 22:50      52    50.7    423.38        69.0      93.7      63.5       2       4      71      98    1013    0.00
    08/24/2016 23:00      52    50.6    423.38        68.9      93.7      63.5       2       3      77      78    1013    0.00
    08/24/2016 23:10      52    50.5    423.38        68.8      93.7      63.5       1       4      82      86    1013    0.00
    08/24/2016 23:20      52    50.4    423.38        68.6      93.7      63.5       2       3      77      52    1013    0.00
    08/24/2016 23:30      52    50.3    423.38        68.4      93.7      63.5       2       4      73      77    1013    0.00
    08/24/2016 23:40      52    50.1    423.38        68.2      93.7      63.5       2       4      71      63    1013    0.00
    08/24/2016 23:50      53    50.1    423.38        68.0      93.7      63.5       0       2      75      77    1013    0.00
    08/25/2016 00:00      53    50.1    423.38        67.8      93.7      63.5       0       2      71      82    1013    0.00
    08/25/2016 00:10      53    50.1    423.38        67.8      68.0      67.5       0       2      89      80    1013    0.00
    08/25/2016 00:20      53    50.0    423.38        67.7      68.0      67.5       0       3      59      37    1013    0.00
    08/25/2016 00:30      53    50.0    423.38        67.7      68.0      67.5       2       3      55      64    1013    0.00
    08/25/2016 00:40      53    50.0    423.38        67.7      68.0      67.5       1       4      53      63    1013    0.00
    08/25/2016 00:50      54    50.2    423.38        67.5      68.0      67.3       2       3      77      77    1013    0.00
    08/25/2016 01:00      55    50.4    423.38        67.3      68.0      67.0       1       3      67      67    1013    0.00
    08/25/2016 01:10      56    50.7    423.38        67.0      68.0      66.7       1       3      68     101    1013    0.00
    08/25/2016 01:20      57    51.0    423.38        66.7      68.0      66.4       0       2      57      49    1013    0.00
    08/25/2016 01:30      58    51.1    423.38        66.5      68.0      66.3       2       4      44      59    1013    0.00
    08/25/2016 01:40      59    51.3    423.38        66.4      68.0      66.2       1       3      61      36    1012    0.00
    08/25/2016 01:50      60    51.5    423.38        66.1      68.0      65.9       1       2      85      78    1012    0.00
    08/25/2016 02:00      60    51.7    423.38        65.9      68.0      65.8       0       2      78      77    1012    0.00
    08/25/2016 02:10      63    51.7    423.38        65.6      68.0      65.0       0       0      60      57    1012    0.00
    08/25/2016 02:20      65    52.4    423.38        64.7      68.0      64.2       0       0       0      13    1012    0.00
    08/25/2016 02:30      65    52.4    423.38        64.3      68.0      64.0       0       0       0      12    1012    0.00
    08/25/2016 02:40      67    52.3    423.38        64.0      68.0      63.8       0       0       0      13    1012    0.00
    08/25/2016 02:50      68    52.6    423.38        63.6      68.0      63.5       0       1     151     151    1012    0.00
    08/25/2016 03:00      67    52.4    423.38        63.4      68.0      63.2       0       2     145     139    1012    0.00
    08/25/2016 03:10      66    52.1    423.38        63.5      68.0      63.2       0       0       0     137    1012    0.00
    08/25/2016 03:20      67    52.1    423.38        63.5      68.0      63.2       0       0       0     215    1012    0.00
    08/25/2016 03:30      67    52.1    423.38        63.2      68.0      62.9       0       0       0     215    1012    0.00
    08/25/2016 03:40      68    52.1    423.38        63.0      68.0      62.8       0       0       0     212    1012    0.00
    08/25/2016 03:50      69    52.3    423.38        62.8      68.0      62.5       0       0       0     213    1012    0.00
    08/25/2016 04:00      70    52.6    423.38        62.5      68.0      62.3       0       0       0     213    1012    0.00
    08/25/2016 04:10      70    52.5    423.38        62.5      68.0      62.3       0       0       0     213    1012    0.00
    08/25/2016 04:20      70    52.4    423.38        62.5      68.0      62.3       0       0       0     216    1013    0.00
    08/25/2016 04:30      70    52.8    423.38        62.4      68.0      62.2       0       2      70      66    1013    0.00
    08/25/2016 04:40      71    52.5    423.38        62.4      68.0      62.2       0       0       0      55    1013    0.00
    08/25/2016 04:50      70    52.5    423.38        62.2      68.0      61.9       0       0       0      42    1013    0.00
    08/25/2016 05:00      69    52.4    423.38        62.4      68.0      61.9       0       1      38      26    1013    0.00
    08/25/2016 05:10      66    52.0    423.38        62.9      68.0      61.9       1       3      36      22    1013    0.00
    08/25/2016 05:20      64    51.4    423.38        63.5      68.0      61.9       1       2      45      49    1013    0.00
    08/25/2016 05:30      64    51.2    423.38        63.6      68.0      61.9       1       3      31      29    1013    0.00
    08/25/2016 05:40      64    51.3    423.38        63.7      68.0      61.9       1       3      34      23    1013    0.00
    08/25/2016 05:50      64    51.5    423.38        63.9      68.0      61.9       0       3      29      32    1013    0.00
    08/25/2016 06:00      64    51.9    423.38        64.3      68.0      61.9       2       3      51      43    1013    0.00
    08/25/2016 06:10      64    52.3    423.38        64.8      68.0      61.9       2       3      51      36    1013    0.00
    08/25/2016 06:20      64    52.7    423.38        65.1      68.0      61.9       2       3      47      34    1013    0.00
    08/25/2016 06:30      63    53.1    423.38        65.8      68.0      61.9       2       3      57      61    1013    0.00
    08/25/2016 06:40      62    53.3    423.38        66.5      68.0      61.9       2       4      70      79    1013    0.00
    08/25/2016 06:50      62    53.5    423.38        67.1      68.0      61.9       2       5      62      76    1013    0.00
    08/25/2016 07:00      62    54.0    423.38        67.3      68.0      61.9       2       5      97      82    1013    0.00
    08/25/2016 07:10      60    54.2    423.38        67.9      68.5      61.9       2       4      95      72    1013    0.00
    08/25/2016 07:20      63    54.6    423.38        68.3      68.6      61.9       2       4      59      69    1013    0.00
    08/25/2016 07:30      61    55.0    423.38        68.5      68.9      61.9       2       4      82      79    1013    0.00
    08/25/2016 07:40      62    55.1    423.38        68.8      69.2      61.9       2       4      76      68    1013    0.00
    08/25/2016 07:50      58    55.2    423.38        69.6      70.4      61.9       2       4     149     121    1013    0.00
    08/25/2016 08:00      58    55.0    423.38        70.5      70.8      61.9       2       4     127     117    1013    0.00
    08/25/2016 08:10      56    54.9    423.38        71.1      71.4      61.9       2       6     117     144    1013    0.00
    08/25/2016 08:20      55    54.8    423.38        71.2      71.7      61.9       2       4      86      43    1013    0.00
    08/25/2016 08:30      53    54.9    423.38        72.0      72.6      61.9       2       5     138     177    1013    0.00
    08/25/2016 08:40      54    54.4    423.38        71.8      72.6      61.9       3       6      70      52    1013    0.00
    08/25/2016 08:50      52    54.5    423.38        72.3      72.9      61.9       2       4      77      95    1013    0.00
    08/25/2016 09:00      50    54.4    423.38        73.3      74.2      61.9       3       6     147     149    1013    0.00
    08/25/2016 09:10      50    54.1    423.38        73.9      74.3      61.9       2       5     114      44    1013    0.00
    08/25/2016 09:20      50    54.2    423.38        73.8      74.4      61.9       3       6     164     152    1013    0.00
    08/25/2016 09:30      48    54.5    423.39        74.6      75.4      61.9       2       6     121      93    1013    0.00
    08/25/2016 09:40      47    54.4    423.47        75.7      76.3      61.9       3       6      79     166    1013    0.00
    08/25/2016 09:50      46    54.7    423.53        76.6      77.3      61.9       3       8     150     165    1013    0.00
    08/25/2016 10:00      47    54.6    423.53        76.6      77.4      61.9       4       7     175     171    1013    0.00
    08/25/2016 10:10      44    54.5    423.58        77.4      78.0      61.9       3       6     105      69    1013    0.00
    08/25/2016 10:20      42    54.3    423.79        78.3      79.1      61.9       2       6     140     103    1013    0.00
    08/25/2016 10:30      43    53.7    423.88        78.7      79.3      61.9       2       7     109     103    1013    0.00
    08/25/2016 10:40      40    54.4    423.90        79.6      81.3      61.9       3       7     116     171    1013    0.00
    08/25/2016 10:50      42    53.8    423.91        79.9      81.3      61.9       3       8     133     182    1013    0.00
    08/25/2016 11:00      39    54.0    423.92        79.9      81.3      61.9       2       5     112      54    1012    0.00
    08/25/2016 11:10      36    53.3    423.92        81.1      82.4      61.9       3       6     127     131    1012    0.00
    08/25/2016 11:20      37    52.6    423.92        82.0      82.7      61.9       3       7     106      80    1012    0.00
    08/25/2016 11:30      36    54.1    423.92        81.5      83.0      61.9       4      11     146     149    1012    0.00
    08/25/2016 11:40      36    52.8    423.92        82.4      83.0      61.9       2       6     146     172    1012    0.00
    08/25/2016 11:50      36    53.0    423.93        82.5      83.2      61.9       3       9     118      97    1012    0.00
    08/25/2016 12:00      34    52.2    423.96        82.9      83.2      61.9       4       9     139     159    1012    0.00
    08/25/2016 12:10      35    52.8    424.01        83.3      83.8      61.9       4       9     135     167    1012    0.00
    08/25/2016 12:20      34    53.0    424.02        84.5      85.0      61.9       4      13     149     157    1012    0.00
    08/25/2016 12:30      35    53.4    424.02        85.0      85.7      61.9       4      13     133     164    1011    0.00
    08/25/2016 12:40      35    53.2    424.02        83.5      85.7      61.9       4      10     101     102    1011    0.00
    08/25/2016 12:50      36    53.4    424.02        83.6      85.7      61.9       5      11     160     153    1011    0.00
    08/25/2016 13:00      36    54.2    424.02        84.1      85.7      61.9       5      10     142      95    1011    0.00
    08/25/2016 13:10      36    54.5    424.02        84.3      85.7      61.9       6      13     138     148    1011    0.00
    08/25/2016 13:20      36    54.5    424.03        83.7      85.7      61.9       6      11     143     156    1011    0.00
    08/25/2016 13:30      38    54.6    424.08        83.1      85.7      61.9       5      12     114      81    1011    0.00
    08/25/2016 13:40      36    55.1    424.09        83.4      85.7      61.9       5       9     135     161    1011    0.00
    08/25/2016 13:50      39    55.0    424.18        82.5      85.7      61.9       5       9     125     114    1011    0.00
    08/25/2016 14:00      36    55.0    424.20        83.7      85.7      61.9       5      12     144     158    1011    0.00
    08/25/2016 14:10      36    54.2    424.20        84.0      85.7      61.9       6      11     137     139    1011    0.00
    08/25/2016 14:20      38    54.6    424.20        83.0      85.7      61.9       5      10     128     156    1011    0.00
    08/25/2016 14:30      39    54.7    424.23        83.5      85.7      61.9       6      12     134     149    1011    0.00
    08/25/2016 14:40      39    55.0    424.24        82.8      85.7      61.9       5       8     122     122    1011    0.00
    08/25/2016 14:50      39    54.8    424.24        82.6      85.7      61.9       5      11     134     158    1011    0.00
    08/25/2016 15:00      36    53.9    424.25        82.2      85.7      61.9       4      12     137     153    1011    0.00
    08/25/2016 15:10      36    52.8    424.26        82.2      85.7      61.9       4       9     130     116    1011    0.00
    08/25/2016 15:20      36    52.4    424.26        82.3      85.7      61.9       6      12     151     186    1011    0.00
    08/25/2016 15:30      35    52.4    424.26        82.2      85.7      61.9       6      12     153     147    1010    0.00
    08/25/2016 15:40      36    52.2    424.26        82.1      85.7      61.9       4      12     122     114    1010    0.00
    08/25/2016 15:50      38    52.8    424.26        81.6      85.7      61.9       4       9     136     145    1010    0.00
    08/25/2016 16:00      39    53.5    424.32        81.2      85.7      61.9       4       9     126     130    1010    0.00
    08/25/2016 16:10      38    53.4    424.34        81.2      85.7      61.9       5      10     150     209    1010    0.00
    08/25/2016 16:20      41    53.7    424.34        81.2      85.7      61.9       4       9     126     149    1010    0.00
    08/25/2016 16:30      42    54.6    424.35        80.0      85.7      61.9       4       7     140     154    1010    0.00
    08/25/2016 16:40      43    54.9    424.39        79.9      85.7      61.9       4       8     141     153    1010    0.00
    08/25/2016 16:50      43    55.1    424.44        79.3      85.7      61.9       4       8     140     143    1010    0.00
    08/25/2016 17:00      44    55.5    424.44        79.1      85.7      61.9       3       8     126     142    1010    0.00
    08/25/2016 17:10      46    55.6    424.44        78.9      85.7      61.9       5       9     146     137    1010    0.00
    08/25/2016 17:20      46    55.9    424.44        78.5      85.7      61.9       4       8     152     164    1010    0.00
    08/25/2016 17:30      47    56.1    424.44        78.3      85.7      61.9       4       8     132     155    1010    0.00
    08/25/2016 17:40      48    56.1    424.44        77.7      85.7      61.9       4       7     148     146    1010    0.00
    08/25/2016 17:50      49    56.0    424.44        76.8      85.7      61.9       5       8     155     158    1010    0.00
    08/25/2016 18:00      50    55.8    424.44        76.1      85.7      61.9       4       7     156     154    1010    0.00
    08/25/2016 18:10      53    56.2    424.44        75.3      85.7      61.9       3       6     130     151    1011    0.00
    08/25/2016 18:20      54    56.3    424.44        74.5      85.7      61.9       5       7     154     161    1011    0.00
    08/25/2016 18:30      56    56.5    424.44        73.6      85.7      61.9       3       6     127     140    1011    0.00
    08/25/2016 18:40      57    56.6    424.44        72.9      85.7      61.9       3       7     148     145    1011    0.00
    08/25/2016 18:50      58    56.8    424.44        72.6      85.7      61.9       2       6     116     123    1011    0.00
    08/25/2016 19:00      59    56.8    424.44        72.3      85.7      61.9       2       5     143     139    1011    0.00
    08/25/2016 19:10      60    56.9    424.44        71.7      85.7      61.9       2       4     148     138    1011    0.00
    08/25/2016 19:20      61    57.0    424.44        71.4      85.7      61.9       1       4     122     136    1011    0.00
    08/25/2016 19:30      62    57.2    424.44        71.2      85.7      61.9       2       6     116     142    1011    0.00
    08/25/2016 19:40      62    57.2    424.44        71.0      85.7      61.9       1       5     120      46    1011    0.00
    08/25/2016 19:50      64    57.2    424.44        70.4      85.7      61.9       2       5     123     144    1011    0.00
    08/25/2016 20:00      65    57.4    424.44        70.0      85.7      61.9       3       6     105      96    1011    0.00
    08/25/2016 20:10      66    57.4    424.44        69.6      85.7      61.9       1       4     127     150    1011    0.00
    08/25/2016 20:20      67    57.4    424.44        69.2      85.7      61.9       2       5     101      94    1011    0.00
    08/25/2016 20:30      68    57.5    424.44        68.8      85.7      61.9       2       5     100      95    1011    0.00
    08/25/2016 20:40      69    57.4    424.44        68.3      85.7      61.9       2       5     141     146    1011    0.00
    08/25/2016 20:50      70    57.5    424.44        67.8      85.7      61.9       1       4     123      79    1012    0.00
    08/25/2016 21:00      71    57.5    424.44        67.4      85.7      61.9       2       5     129     142    1012    0.00
    08/25/2016 21:10      72    57.4    424.44        66.9      85.7      61.9       3       5     150     147    1012    0.00
    08/25/2016 21:20      73    57.6    424.44        66.6      85.7      61.9       2       5     141     135    1012    0.00
    08/25/2016 21:30      73    57.6    424.44        66.5      85.7      61.9       2       4     137     137    1012    0.00
    08/25/2016 21:40      74    57.6    424.44        66.2      85.7      61.9       2       5     115      88    1012    0.00
    08/25/2016 21:50      75    57.6    424.44        65.9      85.7      61.9       3       5      95      85    1012    0.00
    08/25/2016 22:00      75    57.5    424.44        65.7      85.7      61.9       1       4     103      78    1012    0.00
    08/25/2016 22:10      75    57.2    424.44        65.4      85.7      61.9       1       4     132     138    1012    0.00
    08/25/2016 22:20      75    57.3    424.44        65.2      85.7      61.9       1       4     108      89    1012    0.00
    08/25/2016 22:30      76    57.1    424.44        65.0      85.7      61.9       1       4     111      84    1012    0.00
    08/25/2016 22:40      77    57.1    424.44        64.7      85.7      61.9       1       3     125     130    1012    0.00
    08/25/2016 22:50      77    57.1    424.44        64.6      85.7      61.9       3       6     148     139    1012    0.00